This is the latest recevied weather packets stored in our database for station/object WB6AHC-1. If no packets are shown the sender has not sent any weather packets the latest 10 day(s).
| Time | Temp. | Humidity | Pressure | Rain* | Wind** | Luminosity | Snow |
|---|---|---|---|---|---|---|---|
| 1777936848 | 17.78° C | 61% | - | 0 mm | 0 m/s | - | - |
| 1777936001 | 18.33° C | 59% | - | 0 mm | 0 m/s | - | - |
| 1777935157 | 18.33° C | 59% | - | 0 mm | 0 m/s | - | - |
| 1777934313 | 18.89° C | 58% | - | 0 mm | 0 m/s | - | - |
| 1777933466 | 18.89° C | 58% | - | 0 mm | 0 m/s | - | - |
| 1777932622 | 18.33° C | 58% | - | 0 mm | 0 m/s | - | - |
| 1777931778 | 18.33° C | 57% | - | 0 mm | 0 m/s | - | - |
| 1777930931 | 18.33° C | 57% | - | 0 mm | 0 m/s | - | - |
| 1777930087 | 18.89° C | 56% | - | 0 mm | 0 m/s | - | - |
| 1777929243 | 19.44° C | 55% | - | 0 mm | 0 m/s | - | - |
| 1777928396 | 19.44° C | 54% | - | 0 mm | 0 m/s | - | - |
| 1777927552 | 20° C | 51% | - | 0 mm | 0 m/s | - | - |
| 1777926708 | 20° C | 51% | - | 0 mm | 0 m/s | - | - |
| 1777925861 | 20.56° C | 49% | - | 0 mm | 0 m/s | - | - |
| 1777925017 | 20.56° C | 49% | - | 0 mm | 0 m/s | - | - |
| 1777924172 | 20.56° C | 49% | - | 0 mm | 0 m/s | - | - |
| 1777923325 | 20° C | 49% | - | 0 mm | 0 m/s | - | - |
| 1777922481 | 20° C | 50% | - | 0 mm | 0 m/s | - | - |
| 1777921637 | 19.44° C | 51% | - | 0 mm | 0 m/s | - | - |
| 1777920790 | 18.89° C | 53% | - | 0 mm | 0 m/s | - | - |
| 1777919946 | 18.33° C | 54% | - | 0 mm | 0 m/s | - | - |
| 1777919102 | 17.78° C | 55% | - | 0 mm | 0 m/s | - | - |
| 1777918255 | 18.33° C | 55% | - | 0 mm | 0 m/s | - | - |
| 1777917411 | 17.78° C | 57% | - | 0 mm | 0 m/s | - | - |
| 1777916567 | 17.22° C | 57% | - | 0 mm | 0 m/s | - | - |
* Rain latest hour (hover to see other rain measurements)
** Current wind speed in m/s (hover to see current wind gust speed)